CYQA

Details ICAO CYQA (YQA)
Name MUSKOKA
Region Canada
Timezone America/Toronto (UTC-4.0)
Plans Departing 55
Arriving 24
Stats Elevation 925 ft / 282 m (AMSL)
Location 44.971312° -79.304855°
Runways 2
Magnetic Variation 10.865° W
Sunrise 2018-05-22 09:42:35 UTC / 2018-05-22 05:42:35 Local
Sunset 2018-05-23 00:48:04 UTC / 2018-05-22 20:48:04 Local
Advertisement - Login to hide

Runways

ID Width Length Bearing (true) Bearing (mag) Surface Threshold Offset Overrun Length
09 98 ft / 30 m 2,182 ft / 665 m 80.12° 90.99° Grass 0 ft / 0 m 0 ft / 0 m
18 151 ft / 46 m 6,006 ft / 1,831 m 169.70° 180.57° Asphalt 801 ft / 244 m 0 ft / 0 m
27 98 ft / 30 m 2,182 ft / 665 m 260.13° 271.00° Grass 0 ft / 0 m 0 ft / 0 m
36 151 ft / 46 m 6,006 ft / 1,831 m 349.70° 0.57° Asphalt 0 ft / 0 m 0 ft / 0 m

Map

Weather


0- 5 10 15 20 25 30 35+ Temperature / ° C

Clouds and Precipitation
Forecast for 2018-05-22 12:00 UTC. Updated an hour ago

Ground ~20,000 ft ~40,000 ft Winds

METAR

CYQA 221200Z AUTO 16002KT 9SM -RA 13/11 A3004 RMK CLD MISG SLP176

TAF

TAF CYQA 221138Z 2212/2224 07008KT P6SM OVC080 TEMPO 2212/2218 P6SM -SHRA FM221800 02008KT P6SM OVC030 TEMPO 2218/2224 P6SM -RA OVC020 BECMG 2222/2224 29005KT RMK FCST BASED ON AUTO OBS. NXT FCST BY 221400Z

Frequencies

Tower 122.30 MHz MF
Warning: Do not use this data for real-world aviation or navigation. No guarantee of current accuracy is given.